createdAt,value
2022-10-05T00:00:15.163Z,13.25
2022-10-05T00:04:23.325Z,12.84
2022-10-05T00:08:17.085Z,12.47
2022-10-05T00:12:13.932Z,12.45
2022-10-05T00:16:20.919Z,13.71
2022-10-05T00:20:32.265Z,13.76
2022-10-05T00:24:40.397Z,13.31
2022-10-05T00:28:51.737Z,12.90
2022-10-05T00:33:00.134Z,12.84
2022-10-05T00:37:08.394Z,13.85
2022-10-05T00:41:25.008Z,13.70
2022-10-05T00:45:48.353Z,13.21
2022-10-05T00:50:04.688Z,12.78
2022-10-05T00:54:08.838Z,12.43
2022-10-05T00:58:15.441Z,12.52
2022-10-05T01:02:26.865Z,13.74
2022-10-05T01:06:39.546Z,13.62
2022-10-05T01:10:50.527Z,13.18
2022-10-05T01:15:01.482Z,12.77
2022-10-05T01:19:12.885Z,12.71
2022-10-05T01:23:20.656Z,13.78
2022-10-05T01:27:53.225Z,13.64
2022-10-05T01:32:13.286Z,13.17
2022-10-05T01:36:30.492Z,12.74
2022-10-05T01:40:44.277Z,12.40
2022-10-05T01:44:58.351Z,12.46
2022-10-05T01:49:09.396Z,13.69
2022-10-05T01:53:23.490Z,13.59
2022-10-05T01:57:40.550Z,13.14
2022-10-05T02:01:46.997Z,12.73
2022-10-05T02:06:00.985Z,12.38
2022-10-05T02:10:15.485Z,12.42
2022-10-05T02:14:23.610Z,13.60
2022-10-05T02:18:36.700Z,13.47
2022-10-05T02:22:43.960Z,13.04
2022-10-05T02:26:45.368Z,12.60
2022-10-05T02:30:52.745Z,12.51
2022-10-05T02:35:02.719Z,13.58
2022-10-05T02:39:22.998Z,13.43
2022-10-05T02:43:32.552Z,12.89
2022-10-05T02:47:46.881Z,12.40
2022-10-05T02:52:00.456Z,12.28
2022-10-05T02:56:14.730Z,13.35
2022-10-05T03:00:23.357Z,13.07
2022-10-05T03:04:37.831Z,12.50
2022-10-05T03:08:59.069Z,12.02
2022-10-05T03:13:10.437Z,11.60
2022-10-05T03:17:21.726Z,11.60
2022-10-05T03:21:47.306Z,12.78
2022-10-05T03:26:11.438Z,12.57
2022-10-05T03:30:38.090Z,11.98
2022-10-05T03:34:50.568Z,11.47
2022-10-05T03:38:59.867Z,11.08
2022-10-05T03:43:08.018Z,11.10
2022-10-05T03:47:37.688Z,12.27
2022-10-05T03:51:57.070Z,12.09
2022-10-05T03:56:20.635Z,11.54
2022-10-05T04:00:27.445Z,11.06
2022-10-05T04:04:35.581Z,10.67
2022-10-05T04:09:08.773Z,10.68
2022-10-05T04:13:22.918Z,11.93
2022-10-05T04:17:32.028Z,11.75
2022-10-05T04:21:44.391Z,11.26
2022-10-05T04:25:33.796Z,10.85
2022-10-05T04:29:42.163Z,10.73
2022-10-05T04:33:53.484Z,11.83
2022-10-05T04:38:01.607Z,11.74
2022-10-05T04:41:57.359Z,11.28
2022-10-05T04:45:44.040Z,10.85
2022-10-05T04:49:41.005Z,10.67
2022-10-05T04:53:47.364Z,11.77
2022-10-05T04:57:58.586Z,11.74
2022-10-05T05:02:19.251Z,11.30
2022-10-05T05:06:17.733Z,10.93
2022-10-05T05:10:40.268Z,10.77
2022-10-05T05:14:51.672Z,11.63
2022-10-05T05:18:55.674Z,13.79
2022-10-05T05:22:14.326Z,14.46
2022-10-05T05:26:12.422Z,14.93
2022-10-05T05:30:22.637Z,15.30
2022-10-05T05:34:33.776Z,15.73
2022-10-05T05:38:39.240Z,16.16
2022-10-05T05:42:55.971Z,16.68
2022-10-05T05:47:04.560Z,17.45
2022-10-05T05:51:02.768Z,19.28
2022-10-05T05:54:57.030Z,19.44
2022-10-05T05:58:20.337Z,19.52
2022-10-05T06:02:37.524Z,19.55
2022-10-05T06:06:41.644Z,19.67
2022-10-05T06:10:49.328Z,19.53
2022-10-05T06:14:41.973Z,19.25
2022-10-05T06:18:38.941Z,18.96
2022-10-05T06:22:36.867Z,18.78
2022-10-05T06:26:38.362Z,18.27
2022-10-05T06:30:36.723Z,17.55
2022-10-05T06:34:38.685Z,16.95
2022-10-05T06:38:56.173Z,16.18
2022-10-05T06:43:21.430Z,15.59
2022-10-05T06:47:35.186Z,15.10
2022-10-05T06:51:41.707Z,14.76
2022-10-05T06:56:04.650Z,14.46
2022-10-05T07:00:21.852Z,14.99
2022-10-05T07:04:37.075Z,16.72
2022-10-05T07:08:21.455Z,16.91
2022-10-05T07:12:06.205Z,16.79
2022-10-05T07:16:02.168Z,16.82
2022-10-05T07:19:57.937Z,17.11
2022-10-05T07:23:56.459Z,17.40
2022-10-05T07:27:55.111Z,17.32
2022-10-05T07:32:10.327Z,17.15
2022-10-05T07:36:27.973Z,16.98
2022-10-05T07:40:40.653Z,16.79
2022-10-05T07:45:07.106Z,16.56
2022-10-05T07:48:37.877Z,16.42
2022-10-05T07:52:46.024Z,16.66
2022-10-05T07:56:35.005Z,17.14
2022-10-05T08:00:46.074Z,17.28
2022-10-05T08:04:39.355Z,17.03
2022-10-05T08:07:58.936Z,16.81
2022-10-05T08:11:35.528Z,16.61
2022-10-05T08:15:59.138Z,16.47
2022-10-05T08:20:10.295Z,16.32
2022-10-05T08:24:11.359Z,16.18
2022-10-05T08:28:18.804Z,16.07
2022-10-05T08:32:15.923Z,16.08
2022-10-05T08:35:54.283Z,16.10
2022-10-05T08:39:34.654Z,16.10
2022-10-05T08:43:46.368Z,16.06
2022-10-05T08:47:27.563Z,16.04
2022-10-05T08:51:25.247Z,15.95
2022-10-05T08:56:00.895Z,15.95
2022-10-05T09:00:27.187Z,15.99
2022-10-05T09:04:30.077Z,16.54
2022-10-05T09:08:34.500Z,17.98
2022-10-05T09:12:31.230Z,18.14
2022-10-05T09:16:36.615Z,17.96
2022-10-05T09:20:56.569Z,17.57
2022-10-05T09:24:59.655Z,17.37
2022-10-05T09:29:12.191Z,17.30
2022-10-05T09:33:26.233Z,17.41
2022-10-05T09:37:35.843Z,17.53
2022-10-05T09:42:11.657Z,17.57
2022-10-05T09:45:27.012Z,17.48
2022-10-05T09:49:34.950Z,17.34
2022-10-05T09:53:34.571Z,17.35
2022-10-05T09:57:42.903Z,17.38
2022-10-05T10:01:33.497Z,17.34
2022-10-05T10:05:12.954Z,17.22
2022-10-05T10:09:21.235Z,17.10
2022-10-05T10:13:32.271Z,17.15
2022-10-05T10:17:30.218Z,17.34
2022-10-05T10:21:30.866Z,17.60
2022-10-05T10:24:54.629Z,17.90
2022-10-05T10:28:41.982Z,18.27
2022-10-05T10:32:30.526Z,18.46
2022-10-05T10:35:36.593Z,18.54
2022-10-05T10:39:05.542Z,18.63
2022-10-05T10:43:03.993Z,18.74
2022-10-05T10:46:54.865Z,18.94
2022-10-05T10:50:40.792Z,19.17
2022-10-05T10:54:14.041Z,19.38
2022-10-05T10:57:52.204Z,19.52
2022-10-05T11:02:11.316Z,19.67
2022-10-05T11:06:24.844Z,19.68
2022-10-05T11:10:55.526Z,19.83
2022-10-05T11:14:59.568Z,19.93
2022-10-05T11:18:57.291Z,20.05
2022-10-05T11:22:45.095Z,20.07
2022-10-05T11:26:33.027Z,20.19
2022-10-05T11:30:48.849Z,20.38
2022-10-05T11:34:45.575Z,20.51
2022-10-05T11:38:37.698Z,20.54
2022-10-05T11:42:38.809Z,20.41
2022-10-05T11:46:21.186Z,20.31
2022-10-05T11:50:19.260Z,20.28
2022-10-05T11:54:23.710Z,20.21
2022-10-05T11:58:21.532Z,20.07
2022-10-05T12:01:55.758Z,19.96
2022-10-05T12:05:48.428Z,19.69
2022-10-05T12:10:10.279Z,19.63
2022-10-05T12:14:20.759Z,19.56
2022-10-05T12:18:40.986Z,19.49
2022-10-05T12:22:47.410Z,19.42
2022-10-05T12:26:14.986Z,19.28
2022-10-05T12:29:30.680Z,19.29
2022-10-05T12:33:21.131Z,19.36
2022-10-05T12:36:52.421Z,19.41
2022-10-05T12:41:05.816Z,19.54
2022-10-05T12:45:00.209Z,19.89
2022-10-05T12:48:56.837Z,20.08
2022-10-05T12:52:48.785Z,20.15
2022-10-05T12:57:15.259Z,20.23
2022-10-05T13:01:26.515Z,20.29
2022-10-05T13:05:40.644Z,20.34
2022-10-05T13:09:56.566Z,20.29
2022-10-05T13:14:22.766Z,20.29
2022-10-05T13:18:21.654Z,20.35
2022-10-05T13:22:43.925Z,20.41
2022-10-05T13:26:34.385Z,20.53
2022-10-05T13:30:35.086Z,20.52
2022-10-05T13:35:01.565Z,20.53
2022-10-05T13:38:41.452Z,20.53
2022-10-05T13:43:03.392Z,20.41
2022-10-05T13:46:58.867Z,20.25
2022-10-05T13:51:07.345Z,20.03
2022-10-05T13:54:43.222Z,19.88
2022-10-05T13:58:37.537Z,19.77
2022-10-05T14:02:51.775Z,19.68
2022-10-05T14:06:31.942Z,19.50
2022-10-05T14:10:10.278Z,19.40
2022-10-05T14:13:54.248Z,19.26
2022-10-05T14:18:03.522Z,19.15
2022-10-05T14:21:22.237Z,19.07
2022-10-05T14:24:55.977Z,18.96
2022-10-05T14:28:45.651Z,18.90
2022-10-05T14:32:42.760Z,18.76
2022-10-05T14:36:05.431Z,18.65
2022-10-05T14:39:15.679Z,18.56
2022-10-05T14:42:31.390Z,18.53
2022-10-05T14:46:07.881Z,18.48
2022-10-05T14:50:31.410Z,18.45
2022-10-05T14:57:19.587Z,18.31
2022-10-05T15:00:14.559Z,18.34
2022-10-05T15:03:44.988Z,18.24
2022-10-05T15:08:03.163Z,18.06
2022-10-05T15:12:05.393Z,17.86
2022-10-05T15:16:25.839Z,17.65
2022-10-05T15:20:00.790Z,17.31
2022-10-05T15:23:08.073Z,17.12
2022-10-05T15:26:11.966Z,17.00
2022-10-05T15:30:12.362Z,16.86
2022-10-05T15:34:19.176Z,16.63
2022-10-05T15:37:54.176Z,16.68
2022-10-05T15:42:17.373Z,17.95
2022-10-05T15:46:00.136Z,18.12
2022-10-05T15:50:06.535Z,17.75
2022-10-05T15:53:16.997Z,17.28
2022-10-05T15:56:48.287Z,16.99
2022-10-05T16:00:45.265Z,16.46
2022-10-05T16:04:47.263Z,16.07
2022-10-05T16:08:22.276Z,15.84
2022-10-05T16:12:07.964Z,15.58
2022-10-05T16:16:21.257Z,15.33
2022-10-05T16:20:28.433Z,15.15
2022-10-05T16:24:35.497Z,15.29
2022-10-05T16:28:28.242Z,16.54
2022-10-05T16:32:35.159Z,16.54
2022-10-05T16:36:50.210Z,16.12
2022-10-05T16:40:52.710Z,15.56
2022-10-05T16:44:51.145Z,15.23
2022-10-05T16:49:07.094Z,14.76
2022-10-05T16:53:17.175Z,14.37
2022-10-05T16:57:25.492Z,14.04
2022-10-05T17:01:32.634Z,14.14
2022-10-05T17:06:05.551Z,15.50
2022-10-05T17:10:18.099Z,15.48
2022-10-05T17:14:35.536Z,15.17
2022-10-05T17:18:49.860Z,14.84
2022-10-05T17:22:59.305Z,14.56
2022-10-05T17:27:15.361Z,14.34
2022-10-05T17:31:28.595Z,14.14
2022-10-05T17:35:42.512Z,13.90
2022-10-05T17:39:50.832Z,13.70
2022-10-05T17:43:42.290Z,13.53
2022-10-05T17:47:34.490Z,13.41
2022-10-05T17:51:36.793Z,13.54
2022-10-05T17:55:45.377Z,14.91
2022-10-05T18:00:08.982Z,14.89
2022-10-05T18:04:03.777Z,14.43
2022-10-05T18:08:01.277Z,13.96
2022-10-05T18:10:41.298Z,13.62
2022-10-05T18:14:07.287Z,13.38
2022-10-05T18:17:57.212Z,13.28
2022-10-05T18:22:11.351Z,14.48
2022-10-05T18:25:52.055Z,14.59
2022-10-05T18:30:24.524Z,14.16
2022-10-05T18:34:44.559Z,13.67
2022-10-05T18:38:55.683Z,13.28
2022-10-05T18:43:24.943Z,12.93
2022-10-05T18:47:34.114Z,12.71
2022-10-05T18:51:32.447Z,12.83
2022-10-05T18:55:37.090Z,14.14
2022-10-05T18:59:30.054Z,14.07
2022-10-05T19:03:20.456Z,13.80
2022-10-05T19:07:28.634Z,13.45
2022-10-05T19:11:38.264Z,13.13
2022-10-05T19:16:05.944Z,12.92
2022-10-05T19:20:24.059Z,13.26
2022-10-05T19:24:26.760Z,14.44
2022-10-05T19:28:55.988Z,14.43
2022-10-05T19:33:13.277Z,14.11
2022-10-05T19:37:45.772Z,13.83
2022-10-05T19:41:55.116Z,13.54
2022-10-05T19:45:46.050Z,13.32
2022-10-05T19:49:46.994Z,13.16
2022-10-05T19:53:31.407Z,13.25
2022-10-05T19:57:27.783Z,14.56
2022-10-05T20:01:25.573Z,14.73
2022-10-05T20:05:35.848Z,14.40
2022-10-05T20:09:27.341Z,14.07
2022-10-05T20:13:06.979Z,13.84
2022-10-05T20:17:05.829Z,13.63
2022-10-05T20:20:45.812Z,13.48
2022-10-05T20:24:49.665Z,13.29
2022-10-05T20:28:56.535Z,13.13
2022-10-05T20:32:54.591Z,12.95
2022-10-05T20:37:03.842Z,13.13
2022-10-05T20:41:12.070Z,14.52
2022-10-05T20:45:20.216Z,14.59
2022-10-05T20:49:18.307Z,14.22
2022-10-05T20:53:26.348Z,13.87
2022-10-05T20:57:27.294Z,13.54
2022-10-05T21:01:41.257Z,13.25
2022-10-05T21:05:39.534Z,13.00
2022-10-05T21:09:16.371Z,13.04
2022-10-05T21:13:23.594Z,14.27
2022-10-05T21:17:18.178Z,14.33
2022-10-05T21:21:17.207Z,13.84
2022-10-05T21:25:15.331Z,13.38
2022-10-05T21:29:16.057Z,13.02
2022-10-05T21:33:00.246Z,12.73
2022-10-05T21:37:10.467Z,12.68
2022-10-05T21:41:18.691Z,13.90
2022-10-05T21:44:49.433Z,13.83
2022-10-05T21:48:20.487Z,13.43
2022-10-05T21:52:28.676Z,12.93
2022-10-05T21:56:36.866Z,12.52
2022-10-05T22:00:35.135Z,12.16
2022-10-05T22:04:47.342Z,12.18
2022-10-05T22:08:49.005Z,13.42
2022-10-05T22:12:50.167Z,13.36
2022-10-05T22:16:58.373Z,12.95
2022-10-05T22:20:57.234Z,12.53
2022-10-05T22:25:05.472Z,12.11
2022-10-05T22:29:13.801Z,12.10
2022-10-05T22:33:12.446Z,13.21
2022-10-05T22:37:04.397Z,13.14
2022-10-05T22:41:11.254Z,12.71
2022-10-05T22:45:18.269Z,12.23
2022-10-05T22:49:20.225Z,11.84
2022-10-05T22:53:29.305Z,11.79
2022-10-05T22:57:37.597Z,12.88
2022-10-05T23:01:45.551Z,12.75
2022-10-05T23:05:53.724Z,12.29
2022-10-05T23:10:02.041Z,11.84
2022-10-05T23:14:10.181Z,11.46
2022-10-05T23:18:10.701Z,11.35
2022-10-05T23:22:05.176Z,12.50
2022-10-05T23:26:06.973Z,12.42
2022-10-05T23:30:15.145Z,11.87
2022-10-05T23:34:07.306Z,11.39
2022-10-05T23:38:04.709Z,11.02
2022-10-05T23:42:12.912Z,10.69
2022-10-05T23:45:58.491Z,10.70
2022-10-05T23:50:07.777Z,11.85
2022-10-05T23:54:14.796Z,11.78
2022-10-05T23:58:22.913Z,11.34
